sensor_id;sensor_type;location;lat;lon;timestamp;P1;durP1;ratioP1;P2;durP2;ratioP2
60859;SDS011;46694;54.382;9.708;2022-07-18T00:02:32;9.27;;;3.97;;
60859;SDS011;46694;54.382;9.708;2022-07-18T00:05:11;6.20;;;3.70;;
60859;SDS011;46694;54.382;9.708;2022-07-18T00:07:51;5.07;;;4.20;;
60859;SDS011;46694;54.382;9.708;2022-07-18T00:10:30;5.60;;;3.60;;
60859;SDS011;46694;54.382;9.708;2022-07-18T00:13:10;9.60;;;3.97;;
60859;SDS011;46694;54.382;9.708;2022-07-18T00:15:50;9.47;;;4.10;;
60859;SDS011;46694;54.382;9.708;2022-07-18T00:18:29;3.53;;;3.13;;
60859;SDS011;46694;54.382;9.708;2022-07-18T00:21:09;6.60;;;3.43;;
60859;SDS011;46694;54.382;9.708;2022-07-18T00:23:49;4.23;;;3.10;;
60859;SDS011;46694;54.382;9.708;2022-07-18T00:26:29;5.90;;;3.40;;
60859;SDS011;46694;54.382;9.708;2022-07-18T00:29:09;3.83;;;3.20;;
60859;SDS011;46694;54.382;9.708;2022-07-18T00:31:49;7.50;;;3.27;;
60859;SDS011;46694;54.382;9.708;2022-07-18T00:34:28;5.27;;;3.40;;
60859;SDS011;46694;54.382;9.708;2022-07-18T00:37:08;4.10;;;3.70;;
60859;SDS011;46694;54.382;9.708;2022-07-18T00:39:48;12.20;;;4.80;;
60859;SDS011;46694;54.382;9.708;2022-07-18T00:42:27;4.77;;;4.13;;
60859;SDS011;46694;54.382;9.708;2022-07-18T00:45:07;8.53;;;4.70;;
60859;SDS011;46694;54.382;9.708;2022-07-18T00:47:48;4.80;;;3.60;;
60859;SDS011;46694;54.382;9.708;2022-07-18T00:50:30;3.73;;;3.43;;
60859;SDS011;46694;54.382;9.708;2022-07-18T00:53:10;4.47;;;4.07;;
60859;SDS011;46694;54.382;9.708;2022-07-18T00:55:50;4.23;;;3.83;;
60859;SDS011;46694;54.382;9.708;2022-07-18T00:58:31;10.83;;;4.13;;
60859;SDS011;46694;54.382;9.708;2022-07-18T01:01:11;7.17;;;4.60;;
60859;SDS011;46694;54.382;9.708;2022-07-18T01:04:12;5.47;;;4.40;;
60859;SDS011;46694;54.382;9.708;2022-07-18T01:06:55;10.03;;;3.50;;
60859;SDS011;46694;54.382;9.708;2022-07-18T01:12:44;5.63;;;4.30;;
60859;SDS011;46694;54.382;9.708;2022-07-18T01:15:25;6.10;;;3.50;;
60859;SDS011;46694;54.382;9.708;2022-07-18T01:18:04;6.00;;;3.60;;
60859;SDS011;46694;54.382;9.708;2022-07-18T01:20:43;5.23;;;3.60;;
60859;SDS011;46694;54.382;9.708;2022-07-18T01:23:23;7.23;;;3.30;;
60859;SDS011;46694;54.382;9.708;2022-07-18T01:26:02;3.00;;;2.80;;
60859;SDS011;46694;54.382;9.708;2022-07-18T01:28:43;4.17;;;3.60;;
60859;SDS011;46694;54.382;9.708;2022-07-18T01:31:23;7.97;;;3.50;;
60859;SDS011;46694;54.382;9.708;2022-07-18T01:34:03;6.10;;;3.20;;
60859;SDS011;46694;54.382;9.708;2022-07-18T01:36:42;7.43;;;3.73;;
60859;SDS011;46694;54.382;9.708;2022-07-18T01:39:22;3.97;;;3.57;;
60859;SDS011;46694;54.382;9.708;2022-07-18T01:42:03;8.50;;;4.13;;
60859;SDS011;46694;54.382;9.708;2022-07-18T01:44:45;8.97;;;3.50;;
60859;SDS011;46694;54.382;9.708;2022-07-18T01:47:24;3.37;;;3.13;;
60859;SDS011;46694;54.382;9.708;2022-07-18T01:50:04;3.47;;;2.77;;
60859;SDS011;46694;54.382;9.708;2022-07-18T01:52:45;5.80;;;3.10;;
60859;SDS011;46694;54.382;9.708;2022-07-18T01:55:25;5.80;;;3.50;;
60859;SDS011;46694;54.382;9.708;2022-07-18T01:58:05;3.77;;;3.00;;
60859;SDS011;46694;54.382;9.708;2022-07-18T02:00:44;4.80;;;4.20;;
60859;SDS011;46694;54.382;9.708;2022-07-18T02:03:24;5.00;;;3.43;;
60859;SDS011;46694;54.382;9.708;2022-07-18T02:06:04;4.70;;;3.17;;
60859;SDS011;46694;54.382;9.708;2022-07-18T02:08:43;5.10;;;3.10;;
60859;SDS011;46694;54.382;9.708;2022-07-18T02:11:23;9.00;;;4.50;;
60859;SDS011;46694;54.382;9.708;2022-07-18T02:14:04;9.27;;;3.37;;
60859;SDS011;46694;54.382;9.708;2022-07-18T02:16:44;7.13;;;3.80;;
60859;SDS011;46694;54.382;9.708;2022-07-18T02:19:24;6.27;;;3.20;;
60859;SDS011;46694;54.382;9.708;2022-07-18T02:22:03;4.20;;;3.70;;
60859;SDS011;46694;54.382;9.708;2022-07-18T02:24:43;4.70;;;3.57;;
60859;SDS011;46694;54.382;9.708;2022-07-18T02:27:22;8.07;;;3.10;;
60859;SDS011;46694;54.382;9.708;2022-07-18T02:30:03;5.73;;;2.90;;
60859;SDS011;46694;54.382;9.708;2022-07-18T02:32:45;4.17;;;3.30;;
60859;SDS011;46694;54.382;9.708;2022-07-18T02:35:25;6.70;;;2.97;;
60859;SDS011;46694;54.382;9.708;2022-07-18T02:38:04;9.27;;;3.30;;
60859;SDS011;46694;54.382;9.708;2022-07-18T02:40:44;7.27;;;3.30;;
60859;SDS011;46694;54.382;9.708;2022-07-18T02:43:24;7.37;;;3.00;;
60859;SDS011;46694;54.382;9.708;2022-07-18T02:46:04;4.33;;;2.80;;
60859;SDS011;46694;54.382;9.708;2022-07-18T02:48:43;5.43;;;2.60;;
60859;SDS011;46694;54.382;9.708;2022-07-18T02:51:23;4.60;;;2.80;;
60859;SDS011;46694;54.382;9.708;2022-07-18T02:54:03;6.30;;;3.20;;
60859;SDS011;46694;54.382;9.708;2022-07-18T02:56:42;5.13;;;3.00;;
60859;SDS011;46694;54.382;9.708;2022-07-18T02:59:22;11.17;;;3.20;;
60859;SDS011;46694;54.382;9.708;2022-07-18T03:02:03;5.43;;;2.97;;
60859;SDS011;46694;54.382;9.708;2022-07-18T03:04:43;5.60;;;3.00;;
60859;SDS011;46694;54.382;9.708;2022-07-18T03:07:22;5.50;;;3.23;;
60859;SDS011;46694;54.382;9.708;2022-07-18T03:10:03;8.07;;;3.53;;
60859;SDS011;46694;54.382;9.708;2022-07-18T03:12:43;7.37;;;3.93;;
60859;SDS011;46694;54.382;9.708;2022-07-18T03:15:23;5.90;;;3.57;;
60859;SDS011;46694;54.382;9.708;2022-07-18T03:18:03;7.40;;;3.53;;
60859;SDS011;46694;54.382;9.708;2022-07-18T03:20:43;3.50;;;3.10;;
60859;SDS011;46694;54.382;9.708;2022-07-18T03:23:22;4.40;;;3.63;;
60859;SDS011;46694;54.382;9.708;2022-07-18T03:26:01;4.53;;;3.30;;
60859;SDS011;46694;54.382;9.708;2022-07-18T03:28:41;7.40;;;3.60;;
60859;SDS011;46694;54.382;9.708;2022-07-18T03:31:21;8.73;;;2.83;;
60859;SDS011;46694;54.382;9.708;2022-07-18T03:34:01;4.27;;;2.73;;
60859;SDS011;46694;54.382;9.708;2022-07-18T03:36:40;4.57;;;3.17;;
60859;SDS011;46694;54.382;9.708;2022-07-18T03:39:20;8.50;;;2.90;;
60859;SDS011;46694;54.382;9.708;2022-07-18T03:42:00;4.50;;;3.53;;
60859;SDS011;46694;54.382;9.708;2022-07-18T03:44:39;3.30;;;2.87;;
60859;SDS011;46694;54.382;9.708;2022-07-18T03:47:19;4.30;;;3.53;;
60859;SDS011;46694;54.382;9.708;2022-07-18T03:49:59;6.90;;;3.57;;
60859;SDS011;46694;54.382;9.708;2022-07-18T03:52:38;7.17;;;3.87;;
60859;SDS011;46694;54.382;9.708;2022-07-18T03:55:18;6.20;;;3.30;;
60859;SDS011;46694;54.382;9.708;2022-07-18T03:57:58;4.10;;;3.07;;
60859;SDS011;46694;54.382;9.708;2022-07-18T04:00:37;5.63;;;3.23;;
60859;SDS011;46694;54.382;9.708;2022-07-18T04:03:17;8.90;;;3.37;;
60859;SDS011;46694;54.382;9.708;2022-07-18T04:05:57;5.57;;;3.87;;
60859;SDS011;46694;54.382;9.708;2022-07-18T04:08:36;4.17;;;3.30;;
60859;SDS011;46694;54.382;9.708;2022-07-18T04:11:16;3.37;;;3.07;;
60859;SDS011;46694;54.382;9.708;2022-07-18T04:13:58;3.83;;;3.30;;
60859;SDS011;46694;54.382;9.708;2022-07-18T04:16:38;6.97;;;3.87;;
60859;SDS011;46694;54.382;9.708;2022-07-18T04:19:17;5.40;;;3.70;;
60859;SDS011;46694;54.382;9.708;2022-07-18T04:21:57;9.67;;;3.93;;
60859;SDS011;46694;54.382;9.708;2022-07-18T04:24:36;3.53;;;3.20;;
60859;SDS011;46694;54.382;9.708;2022-07-18T04:27:16;4.33;;;3.17;;
60859;SDS011;46694;54.382;9.708;2022-07-18T04:29:56;3.00;;;2.60;;
60859;SDS011;46694;54.382;9.708;2022-07-18T04:32:36;4.20;;;3.37;;
60859;SDS011;46694;54.382;9.708;2022-07-18T04:35:16;4.50;;;3.07;;
60859;SDS011;46694;54.382;9.708;2022-07-18T04:37:56;6.30;;;3.43;;
60859;SDS011;46694;54.382;9.708;2022-07-18T04:40:36;5.10;;;3.20;;
60859;SDS011;46694;54.382;9.708;2022-07-18T04:43:16;7.80;;;4.10;;
60859;SDS011;46694;54.382;9.708;2022-07-18T04:45:56;8.83;;;3.93;;
60859;SDS011;46694;54.382;9.708;2022-07-18T04:48:35;6.07;;;3.80;;
60859;SDS011;46694;54.382;9.708;2022-07-18T04:51:17;3.60;;;3.30;;
60859;SDS011;46694;54.382;9.708;2022-07-18T04:53:56;5.70;;;3.30;;
60859;SDS011;46694;54.382;9.708;2022-07-18T04:56:36;3.10;;;2.40;;
60859;SDS011;46694;54.382;9.708;2022-07-18T04:59:15;5.50;;;3.60;;
60859;SDS011;46694;54.382;9.708;2022-07-18T05:01:55;4.83;;;3.23;;
60859;SDS011;46694;54.382;9.708;2022-07-18T05:04:35;4.00;;;3.17;;
60859;SDS011;46694;54.382;9.708;2022-07-18T05:07:16;13.63;;;3.37;;
60859;SDS011;46694;54.382;9.708;2022-07-18T05:09:56;9.23;;;3.37;;
60859;SDS011;46694;54.382;9.708;2022-07-18T05:12:36;4.70;;;3.53;;
60859;SDS011;46694;54.382;9.708;2022-07-18T05:15:18;10.23;;;3.77;;
60859;SDS011;46694;54.382;9.708;2022-07-18T05:18:00;6.30;;;3.70;;
60859;SDS011;46694;54.382;9.708;2022-07-18T05:20:40;7.07;;;4.47;;
60859;SDS011;46694;54.382;9.708;2022-07-18T05:23:19;5.37;;;4.63;;
60859;SDS011;46694;54.382;9.708;2022-07-18T05:26:01;3.77;;;3.47;;
60859;SDS011;46694;54.382;9.708;2022-07-18T05:28:41;7.30;;;4.00;;
60859;SDS011;46694;54.382;9.708;2022-07-18T05:31:21;4.83;;;3.90;;
60859;SDS011;46694;54.382;9.708;2022-07-18T05:34:00;4.80;;;4.23;;
60859;SDS011;46694;54.382;9.708;2022-07-18T05:36:40;7.30;;;3.57;;
60859;SDS011;46694;54.382;9.708;2022-07-18T05:39:20;4.87;;;3.73;;
60859;SDS011;46694;54.382;9.708;2022-07-18T05:41:59;4.83;;;4.33;;
60859;SDS011;46694;54.382;9.708;2022-07-18T05:44:39;5.50;;;4.10;;
60859;SDS011;46694;54.382;9.708;2022-07-18T05:47:18;8.03;;;4.90;;
60859;SDS011;46694;54.382;9.708;2022-07-18T05:49:58;5.57;;;4.07;;
60859;SDS011;46694;54.382;9.708;2022-07-18T05:52:37;8.27;;;4.60;;
60859;SDS011;46694;54.382;9.708;2022-07-18T05:55:17;7.17;;;4.20;;
60859;SDS011;46694;54.382;9.708;2022-07-18T05:57:57;6.00;;;4.20;;
60859;SDS011;46694;54.382;9.708;2022-07-18T06:00:37;5.60;;;4.87;;
60859;SDS011;46694;54.382;9.708;2022-07-18T06:03:16;9.50;;;4.17;;
60859;SDS011;46694;54.382;9.708;2022-07-18T06:05:56;7.40;;;4.53;;
60859;SDS011;46694;54.382;9.708;2022-07-18T06:08:36;6.50;;;4.10;;
60859;SDS011;46694;54.382;9.708;2022-07-18T06:11:16;5.47;;;4.20;;
60859;SDS011;46694;54.382;9.708;2022-07-18T06:13:55;12.37;;;3.90;;
60859;SDS011;46694;54.382;9.708;2022-07-18T06:16:35;6.87;;;4.40;;
60859;SDS011;46694;54.382;9.708;2022-07-18T06:19:15;5.97;;;4.17;;
60859;SDS011;46694;54.382;9.708;2022-07-18T06:21:54;5.20;;;4.70;;
60859;SDS011;46694;54.382;9.708;2022-07-18T06:24:34;7.73;;;4.70;;
60859;SDS011;46694;54.382;9.708;2022-07-18T06:27:14;4.40;;;4.00;;
60859;SDS011;46694;54.382;9.708;2022-07-18T06:29:53;6.03;;;3.77;;
60859;SDS011;46694;54.382;9.708;2022-07-18T06:32:33;9.27;;;4.17;;
60859;SDS011;46694;54.382;9.708;2022-07-18T06:35:13;7.53;;;3.90;;
60859;SDS011;46694;54.382;9.708;2022-07-18T06:37:52;4.93;;;3.80;;
60859;SDS011;46694;54.382;9.708;2022-07-18T06:40:32;3.13;;;2.93;;
60859;SDS011;46694;54.382;9.708;2022-07-18T06:43:11;4.17;;;3.80;;
60859;SDS011;46694;54.382;9.708;2022-07-18T06:45:57;8.87;;;3.87;;
60859;SDS011;46694;54.382;9.708;2022-07-18T06:48:37;10.50;;;4.77;;
60859;SDS011;46694;54.382;9.708;2022-07-18T06:51:16;7.97;;;4.27;;
60859;SDS011;46694;54.382;9.708;2022-07-18T06:53:56;6.33;;;4.53;;
60859;SDS011;46694;54.382;9.708;2022-07-18T06:56:36;5.13;;;3.80;;
60859;SDS011;46694;54.382;9.708;2022-07-18T06:59:16;5.00;;;4.20;;
60859;SDS011;46694;54.382;9.708;2022-07-18T07:01:55;6.20;;;4.97;;
60859;SDS011;46694;54.382;9.708;2022-07-18T07:04:35;6.37;;;5.27;;
60859;SDS011;46694;54.382;9.708;2022-07-18T07:07:15;8.67;;;5.10;;
60859;SDS011;46694;54.382;9.708;2022-07-18T07:09:54;7.23;;;4.40;;
60859;SDS011;46694;54.382;9.708;2022-07-18T07:12:41;6.30;;;3.40;;
60859;SDS011;46694;54.382;9.708;2022-07-18T07:15:23;7.03;;;4.80;;
60859;SDS011;46694;54.382;9.708;2022-07-18T07:18:03;4.50;;;3.90;;
60859;SDS011;46694;54.382;9.708;2022-07-18T07:20:42;5.40;;;3.73;;
60859;SDS011;46694;54.382;9.708;2022-07-18T07:23:22;7.20;;;4.30;;
60859;SDS011;46694;54.382;9.708;2022-07-18T07:26:01;7.47;;;3.87;;
60859;SDS011;46694;54.382;9.708;2022-07-18T07:28:41;5.50;;;3.67;;
60859;SDS011;46694;54.382;9.708;2022-07-18T07:31:20;3.60;;;3.30;;
60859;SDS011;46694;54.382;9.708;2022-07-18T07:34:00;8.20;;;4.90;;
60859;SDS011;46694;54.382;9.708;2022-07-18T07:36:39;5.40;;;4.13;;
60859;SDS011;46694;54.382;9.708;2022-07-18T07:39:19;6.20;;;3.47;;
60859;SDS011;46694;54.382;9.708;2022-07-18T07:41:59;12.60;;;4.07;;
60859;SDS011;46694;54.382;9.708;2022-07-18T07:44:38;9.37;;;4.17;;
60859;SDS011;46694;54.382;9.708;2022-07-18T07:47:17;6.37;;;4.47;;
60859;SDS011;46694;54.382;9.708;2022-07-18T07:49:57;5.30;;;4.23;;
60859;SDS011;46694;54.382;9.708;2022-07-18T07:52:38;9.53;;;5.60;;
60859;SDS011;46694;54.382;9.708;2022-07-18T07:55:17;4.20;;;3.83;;
60859;SDS011;46694;54.382;9.708;2022-07-18T07:57:57;6.83;;;5.10;;
60859;SDS011;46694;54.382;9.708;2022-07-18T08:00:36;10.10;;;4.10;;
60859;SDS011;46694;54.382;9.708;2022-07-18T08:03:16;4.20;;;3.67;;
60859;SDS011;46694;54.382;9.708;2022-07-18T08:05:55;6.27;;;4.23;;
60859;SDS011;46694;54.382;9.708;2022-07-18T08:08:35;7.90;;;4.30;;
60859;SDS011;46694;54.382;9.708;2022-07-18T08:11:15;9.90;;;5.40;;
60859;SDS011;46694;54.382;9.708;2022-07-18T08:13:54;5.03;;;3.97;;
60859;SDS011;46694;54.382;9.708;2022-07-18T08:16:34;8.10;;;4.40;;
60859;SDS011;46694;54.382;9.708;2022-07-18T08:19:14;4.80;;;4.40;;
60859;SDS011;46694;54.382;9.708;2022-07-18T08:21:54;8.80;;;4.83;;
60859;SDS011;46694;54.382;9.708;2022-07-18T08:24:33;7.00;;;5.00;;
60859;SDS011;46694;54.382;9.708;2022-07-18T08:27:13;9.50;;;4.97;;
60859;SDS011;46694;54.382;9.708;2022-07-18T08:29:52;8.20;;;4.97;;
60859;SDS011;46694;54.382;9.708;2022-07-18T08:32:32;10.77;;;4.70;;
60859;SDS011;46694;54.382;9.708;2022-07-18T08:35:12;7.07;;;4.70;;
60859;SDS011;46694;54.382;9.708;2022-07-18T08:37:52;6.70;;;4.70;;
60859;SDS011;46694;54.382;9.708;2022-07-18T08:40:32;6.57;;;4.33;;
60859;SDS011;46694;54.382;9.708;2022-07-18T08:43:12;9.73;;;3.90;;
60859;SDS011;46694;54.382;9.708;2022-07-18T08:45:54;5.00;;;3.90;;
60859;SDS011;46694;54.382;9.708;2022-07-18T08:48:38;5.70;;;3.93;;
60859;SDS011;46694;54.382;9.708;2022-07-18T08:51:21;4.27;;;3.97;;
60859;SDS011;46694;54.382;9.708;2022-07-18T08:54:02;9.23;;;4.87;;
60859;SDS011;46694;54.382;9.708;2022-07-18T08:56:41;9.43;;;4.70;;
60859;SDS011;46694;54.382;9.708;2022-07-18T08:59:21;6.10;;;4.97;;
60859;SDS011;46694;54.382;9.708;2022-07-18T09:02:01;7.03;;;4.30;;
60859;SDS011;46694;54.382;9.708;2022-07-18T09:04:41;6.70;;;4.50;;
60859;SDS011;46694;54.382;9.708;2022-07-18T09:07:27;7.23;;;4.80;;
60859;SDS011;46694;54.382;9.708;2022-07-18T09:10:09;6.13;;;4.70;;
60859;SDS011;46694;54.382;9.708;2022-07-18T09:12:56;4.27;;;3.90;;
60859;SDS011;46694;54.382;9.708;2022-07-18T09:15:42;12.80;;;4.30;;
60859;SDS011;46694;54.382;9.708;2022-07-18T09:18:44;9.37;;;5.17;;
60859;SDS011;46694;54.382;9.708;2022-07-18T09:21:26;6.10;;;4.23;;
60859;SDS011;46694;54.382;9.708;2022-07-18T09:24:05;8.43;;;5.23;;
60859;SDS011;46694;54.382;9.708;2022-07-18T09:26:45;8.80;;;4.50;;
60859;SDS011;46694;54.382;9.708;2022-07-18T09:29:25;9.33;;;4.33;;
60859;SDS011;46694;54.382;9.708;2022-07-18T09:32:04;5.30;;;4.80;;
60859;SDS011;46694;54.382;9.708;2022-07-18T09:34:44;6.20;;;4.70;;
60859;SDS011;46694;54.382;9.708;2022-07-18T09:37:24;4.73;;;4.30;;
60859;SDS011;46694;54.382;9.708;2022-07-18T09:40:17;6.33;;;4.40;;
60859;SDS011;46694;54.382;9.708;2022-07-18T09:43:06;7.80;;;4.83;;
60859;SDS011;46694;54.382;9.708;2022-07-18T09:45:52;6.13;;;3.97;;
60859;SDS011;46694;54.382;9.708;2022-07-18T09:48:34;7.47;;;5.60;;
60859;SDS011;46694;54.382;9.708;2022-07-18T09:51:13;6.40;;;4.13;;
60859;SDS011;46694;54.382;9.708;2022-07-18T09:53:53;10.27;;;4.07;;
60859;SDS011;46694;54.382;9.708;2022-07-18T09:56:34;13.07;;;5.30;;
60859;SDS011;46694;54.382;9.708;2022-07-18T09:59:18;10.07;;;5.07;;
60859;SDS011;46694;54.382;9.708;2022-07-18T10:01:58;5.43;;;4.50;;
60859;SDS011;46694;54.382;9.708;2022-07-18T10:04:38;6.73;;;5.00;;
60859;SDS011;46694;54.382;9.708;2022-07-18T10:07:18;5.77;;;4.53;;
60859;SDS011;46694;54.382;9.708;2022-07-18T10:09:58;6.20;;;4.80;;
60859;SDS011;46694;54.382;9.708;2022-07-18T10:12:37;4.27;;;3.87;;
60859;SDS011;46694;54.382;9.708;2022-07-18T10:15:17;7.40;;;4.70;;
60859;SDS011;46694;54.382;9.708;2022-07-18T10:18:00;15.43;;;4.70;;
60859;SDS011;46694;54.382;9.708;2022-07-18T10:20:43;6.17;;;4.63;;
60859;SDS011;46694;54.382;9.708;2022-07-18T10:26:27;7.93;;;4.83;;
60859;SDS011;46694;54.382;9.708;2022-07-18T10:29:09;14.33;;;5.67;;
60859;SDS011;46694;54.382;9.708;2022-07-18T10:31:59;7.63;;;4.60;;
60859;SDS011;46694;54.382;9.708;2022-07-18T10:34:46;8.27;;;5.80;;
60859;SDS011;46694;54.382;9.708;2022-07-18T10:37:25;7.50;;;4.50;;
60859;SDS011;46694;54.382;9.708;2022-07-18T10:40:21;13.73;;;4.87;;
60859;SDS011;46694;54.382;9.708;2022-07-18T10:46:09;5.63;;;4.37;;
60859;SDS011;46694;54.382;9.708;2022-07-18T10:48:52;5.23;;;4.73;;
60859;SDS011;46694;54.382;9.708;2022-07-18T10:51:33;16.23;;;5.17;;
60859;SDS011;46694;54.382;9.708;2022-07-18T10:54:14;10.60;;;5.17;;
60859;SDS011;46694;54.382;9.708;2022-07-18T10:59:33;6.70;;;4.60;;
60859;SDS011;46694;54.382;9.708;2022-07-18T11:02:14;10.20;;;5.83;;
60859;SDS011;46694;54.382;9.708;2022-07-18T11:04:54;5.80;;;4.63;;
60859;SDS011;46694;54.382;9.708;2022-07-18T11:07:34;6.97;;;5.30;;
60859;SDS011;46694;54.382;9.708;2022-07-18T11:10:13;10.30;;;4.97;;
60859;SDS011;46694;54.382;9.708;2022-07-18T11:13:20;5.50;;;4.80;;
60859;SDS011;46694;54.382;9.708;2022-07-18T11:21:32;6.03;;;4.77;;
60859;SDS011;46694;54.382;9.708;2022-07-18T11:24:12;13.07;;;5.83;;
60859;SDS011;46694;54.382;9.708;2022-07-18T11:26:53;7.60;;;4.53;;
60859;SDS011;46694;54.382;9.708;2022-07-18T11:29:33;5.50;;;4.60;;
60859;SDS011;46694;54.382;9.708;2022-07-18T11:32:20;10.47;;;5.17;;
60859;SDS011;46694;54.382;9.708;2022-07-18T11:35:00;5.60;;;4.70;;
60859;SDS011;46694;54.382;9.708;2022-07-18T11:37:50;6.17;;;5.00;;
60859;SDS011;46694;54.382;9.708;2022-07-18T11:40:32;6.97;;;4.60;;
60859;SDS011;46694;54.382;9.708;2022-07-18T11:43:11;7.03;;;3.80;;
60859;SDS011;46694;54.382;9.708;2022-07-18T11:46:03;10.63;;;4.17;;
60859;SDS011;46694;54.382;9.708;2022-07-18T11:48:49;17.70;;;5.40;;
60859;SDS011;46694;54.382;9.708;2022-07-18T11:51:45;9.73;;;4.87;;
60859;SDS011;46694;54.382;9.708;2022-07-18T11:54:24;7.33;;;4.63;;
60859;SDS011;46694;54.382;9.708;2022-07-18T11:57:06;10.53;;;4.90;;
60859;SDS011;46694;54.382;9.708;2022-07-18T11:59:46;10.10;;;5.00;;
60859;SDS011;46694;54.382;9.708;2022-07-18T12:06:09;9.20;;;5.80;;
60859;SDS011;46694;54.382;9.708;2022-07-18T12:08:58;7.30;;;4.83;;
60859;SDS011;46694;54.382;9.708;2022-07-18T12:11:45;8.37;;;4.90;;
60859;SDS011;46694;54.382;9.708;2022-07-18T12:14:25;8.17;;;5.80;;
60859;SDS011;46694;54.382;9.708;2022-07-18T12:17:05;9.20;;;5.23;;
60859;SDS011;46694;54.382;9.708;2022-07-18T12:19:46;6.87;;;5.00;;
60859;SDS011;46694;54.382;9.708;2022-07-18T12:22:25;5.90;;;4.43;;
60859;SDS011;46694;54.382;9.708;2022-07-18T12:25:05;6.43;;;4.40;;
60859;SDS011;46694;54.382;9.708;2022-07-18T12:27:45;5.03;;;4.53;;
60859;SDS011;46694;54.382;9.708;2022-07-18T12:30:24;5.23;;;4.77;;
60859;SDS011;46694;54.382;9.708;2022-07-18T12:33:07;5.47;;;4.83;;
60859;SDS011;46694;54.382;9.708;2022-07-18T12:35:55;7.30;;;5.20;;
60859;SDS011;46694;54.382;9.708;2022-07-18T12:38:36;8.60;;;4.80;;
60859;SDS011;46694;54.382;9.708;2022-07-18T12:41:16;7.10;;;4.90;;
60859;SDS011;46694;54.382;9.708;2022-07-18T12:44:13;6.67;;;4.50;;
60859;SDS011;46694;54.382;9.708;2022-07-18T12:46:53;7.47;;;4.70;;
60859;SDS011;46694;54.382;9.708;2022-07-18T12:49:34;6.70;;;4.50;;
60859;SDS011;46694;54.382;9.708;2022-07-18T12:52:13;4.57;;;4.13;;
60859;SDS011;46694;54.382;9.708;2022-07-18T12:54:53;8.77;;;4.30;;
60859;SDS011;46694;54.382;9.708;2022-07-18T12:57:32;4.17;;;3.80;;
60859;SDS011;46694;54.382;9.708;2022-07-18T13:00:12;7.53;;;4.40;;
60859;SDS011;46694;54.382;9.708;2022-07-18T13:02:51;8.13;;;4.40;;
60859;SDS011;46694;54.382;9.708;2022-07-18T13:05:34;4.63;;;4.20;;
60859;SDS011;46694;54.382;9.708;2022-07-18T13:08:14;4.47;;;4.07;;
60859;SDS011;46694;54.382;9.708;2022-07-18T13:10:54;7.30;;;5.07;;
60859;SDS011;46694;54.382;9.708;2022-07-18T13:13:33;8.70;;;4.00;;
60859;SDS011;46694;54.382;9.708;2022-07-18T13:16:13;7.73;;;4.70;;
60859;SDS011;46694;54.382;9.708;2022-07-18T13:18:52;7.17;;;4.83;;
60859;SDS011;46694;54.382;9.708;2022-07-18T13:21:32;4.90;;;4.30;;
60859;SDS011;46694;54.382;9.708;2022-07-18T13:24:11;7.10;;;4.63;;
60859;SDS011;46694;54.382;9.708;2022-07-18T13:26:51;7.50;;;4.70;;
60859;SDS011;46694;54.382;9.708;2022-07-18T13:29:31;5.93;;;4.30;;
60859;SDS011;46694;54.382;9.708;2022-07-18T13:32:11;4.63;;;4.13;;
60859;SDS011;46694;54.382;9.708;2022-07-18T13:34:51;7.33;;;4.80;;
60859;SDS011;46694;54.382;9.708;2022-07-18T13:37:31;6.47;;;4.30;;
60859;SDS011;46694;54.382;9.708;2022-07-18T13:40:11;8.10;;;4.27;;
60859;SDS011;46694;54.382;9.708;2022-07-18T13:42:52;9.83;;;5.30;;
60859;SDS011;46694;54.382;9.708;2022-07-18T13:45:32;5.63;;;3.80;;
60859;SDS011;46694;54.382;9.708;2022-07-18T13:52:13;14.20;;;4.27;;
60859;SDS011;46694;54.382;9.708;2022-07-18T13:54:52;6.90;;;4.70;;
60859;SDS011;46694;54.382;9.708;2022-07-18T13:57:33;10.37;;;5.70;;
60859;SDS011;46694;54.382;9.708;2022-07-18T14:00:13;5.07;;;4.40;;
60859;SDS011;46694;54.382;9.708;2022-07-18T14:02:53;13.63;;;4.70;;
60859;SDS011;46694;54.382;9.708;2022-07-18T14:05:32;9.83;;;4.80;;
60859;SDS011;46694;54.382;9.708;2022-07-18T14:08:12;8.20;;;4.80;;
60859;SDS011;46694;54.382;9.708;2022-07-18T14:10:51;5.40;;;4.73;;
60859;SDS011;46694;54.382;9.708;2022-07-18T14:13:31;11.63;;;6.20;;
60859;SDS011;46694;54.382;9.708;2022-07-18T14:16:11;6.37;;;5.77;;
60859;SDS011;46694;54.382;9.708;2022-07-18T14:18:50;6.53;;;5.47;;
60859;SDS011;46694;54.382;9.708;2022-07-18T14:21:30;6.77;;;4.57;;
60859;SDS011;46694;54.382;9.708;2022-07-18T14:24:10;6.10;;;5.40;;
60859;SDS011;46694;54.382;9.708;2022-07-18T14:26:50;6.60;;;6.00;;
60859;SDS011;46694;54.382;9.708;2022-07-18T14:29:32;8.43;;;4.63;;
60859;SDS011;46694;54.382;9.708;2022-07-18T14:32:11;6.60;;;5.20;;
60859;SDS011;46694;54.382;9.708;2022-07-18T14:34:51;8.73;;;5.20;;
60859;SDS011;46694;54.382;9.708;2022-07-18T14:37:31;5.97;;;5.37;;
60859;SDS011;46694;54.382;9.708;2022-07-18T14:40:11;6.57;;;5.23;;
60859;SDS011;46694;54.382;9.708;2022-07-18T14:42:50;9.50;;;5.13;;
60859;SDS011;46694;54.382;9.708;2022-07-18T14:45:30;6.77;;;5.17;;
60859;SDS011;46694;54.382;9.708;2022-07-18T14:48:10;6.40;;;5.10;;
60859;SDS011;46694;54.382;9.708;2022-07-18T14:50:49;5.90;;;4.77;;
60859;SDS011;46694;54.382;9.708;2022-07-18T14:53:35;11.87;;;4.60;;
60859;SDS011;46694;54.382;9.708;2022-07-18T14:56:14;7.63;;;5.23;;
60859;SDS011;46694;54.382;9.708;2022-07-18T14:58:54;5.27;;;3.90;;
60859;SDS011;46694;54.382;9.708;2022-07-18T15:01:37;6.97;;;4.10;;
60859;SDS011;46694;54.382;9.708;2022-07-18T15:04:16;5.73;;;4.50;;
60859;SDS011;46694;54.382;9.708;2022-07-18T15:06:56;5.77;;;4.13;;
60859;SDS011;46694;54.382;9.708;2022-07-18T15:09:35;7.90;;;5.10;;
60859;SDS011;46694;54.382;9.708;2022-07-18T15:12:15;10.73;;;4.50;;
60859;SDS011;46694;54.382;9.708;2022-07-18T15:14:55;5.90;;;4.60;;
60859;SDS011;46694;54.382;9.708;2022-07-18T15:17:35;4.23;;;3.83;;
60859;SDS011;46694;54.382;9.708;2022-07-18T15:20:15;3.70;;;3.20;;
60859;SDS011;46694;54.382;9.708;2022-07-18T15:22:56;12.60;;;4.53;;
60859;SDS011;46694;54.382;9.708;2022-07-18T15:25:35;7.27;;;4.50;;
60859;SDS011;46694;54.382;9.708;2022-07-18T15:28:15;6.23;;;4.23;;
60859;SDS011;46694;54.382;9.708;2022-07-18T15:30:55;4.70;;;3.57;;
60859;SDS011;46694;54.382;9.708;2022-07-18T15:33:34;7.73;;;3.93;;
60859;SDS011;46694;54.382;9.708;2022-07-18T15:36:14;12.00;;;3.90;;
60859;SDS011;46694;54.382;9.708;2022-07-18T15:38:54;7.63;;;4.47;;
60859;SDS011;46694;54.382;9.708;2022-07-18T15:41:33;9.70;;;3.90;;
60859;SDS011;46694;54.382;9.708;2022-07-18T15:44:13;6.03;;;4.03;;
60859;SDS011;46694;54.382;9.708;2022-07-18T15:46:52;5.00;;;4.23;;
60859;SDS011;46694;54.382;9.708;2022-07-18T15:49:32;12.13;;;4.40;;
60859;SDS011;46694;54.382;9.708;2022-07-18T15:52:14;5.17;;;4.60;;
60859;SDS011;46694;54.382;9.708;2022-07-18T15:54:53;6.53;;;5.03;;
60859;SDS011;46694;54.382;9.708;2022-07-18T15:57:33;5.90;;;5.30;;
60859;SDS011;46694;54.382;9.708;2022-07-18T16:00:12;5.43;;;4.93;;
60859;SDS011;46694;54.382;9.708;2022-07-18T16:02:53;6.87;;;5.30;;
60859;SDS011;46694;54.382;9.708;2022-07-18T16:05:33;10.20;;;6.20;;
60859;SDS011;46694;54.382;9.708;2022-07-18T16:08:12;8.50;;;6.90;;
60859;SDS011;46694;54.382;9.708;2022-07-18T16:10:52;9.73;;;7.27;;
60859;SDS011;46694;54.382;9.708;2022-07-18T16:13:32;13.20;;;7.87;;
60859;SDS011;46694;54.382;9.708;2022-07-18T16:16:12;8.43;;;6.87;;
60859;SDS011;46694;54.382;9.708;2022-07-18T16:18:51;7.97;;;7.00;;
60859;SDS011;46694;54.382;9.708;2022-07-18T16:21:31;8.23;;;6.80;;
60859;SDS011;46694;54.382;9.708;2022-07-18T16:24:11;6.87;;;5.77;;
60859;SDS011;46694;54.382;9.708;2022-07-18T16:26:51;7.70;;;6.90;;
60859;SDS011;46694;54.382;9.708;2022-07-18T16:29:31;7.53;;;6.10;;
60859;SDS011;46694;54.382;9.708;2022-07-18T16:32:11;6.30;;;5.70;;